Boston, Massachusetts
Traffic Map
Current Weather Conditions
Boston, Massachusetts
Overcast
Overcast

Feels Like: -5°
Wind Chill: -5° Ceiling: 2800
Heat Index: Visibility: 10mi
Dew Point: -3° Wind: 26mph
Humidity: 70% Direction: 50° (NE)
Pressure: 29.92in Gusts: 43mph
Raw Report DataKBOS 080810Z 05023G37KT 10SM BKN028 OVC036 02/M03 A2992 RMK AO2 PK WND 05037/0807 $
Traffic Incident Summary
Active as of:
Severity:
Category:
InformationThere was an issue retrieving the traffic information for this location. Please try a different location or try again shortly.
Advertisements
Track Severe Weather on mobile